Impacts TAF Board INFO
FOR SITUATIONAL AWARENESS. NOT TO BE USED FOR FLIGHT PLANNING PURPOSES.
IDs:

KHBG - Hattiesburg/Chain Mu, MS, US

Issued at 0520 UTC 16 Aug 2018
Updated at 1028 UTC 16 Aug 2018
Potential Impact None Slight Moderate High
Time0953Z 16/11Z 16/12Z 16/13Z 16/14Z 16/15Z 16/16Z 16/17Z 16/18Z 16/19Z 16/20Z 16/21Z 16/22Z 16/23Z>>
Type OBS PRVL PRVL PRVL PRVL PRVL PRVL PRVL PRVL PRVL PRVL PRVL PRVL PRVL
VIS 10 >6 >6 >6 >6 >6 >6 >6 >6 >6 >6 >6 >6 >6
CIG -- -- 25 25 25 25 25 40 40 40 40 40 40 40
Cover CLR FEW BKN BKN BKN BKN BKN BKN BKN BKN BKN BKN BKN BKN
FltCat VFR VFR MVFR MVFR MVFR MVFR MVFR VFR VFR VFR VFR VFR VFR VFR
WX -- -- -- -- -- -- -- VCTS VCTS VCTS VCTS VCTS VCTS VCTS
WDir VRB 170 200 200 200 200 200 190 190 190 190 190 190 190
WSpd 0 3 4 4 4 4 4 6 6 6 6 6 6 6
WGst -- -- -- -- -- -- -- -- -- -- -- -- -- --

Raw TAF
KHBG 160520Z 1606/1706 17003KT P6SM FEW250
  FM161200 20004KT P6SM FEW005 SCT015 BKN025
  FM161700 19006KT P6SM VCTS SCT025 BKN040CB BKN250
  FM170000 17004KT P6SM FEW040 SCT100 SCT250


Raw METAR
KHBG 160953Z AUTO 00000KT 10SM CLR 24/23 A3006 RMK AO2 SLP175 T02390233 TSNO
KHBG 160853Z AUTO 00000KT 10SM CLR 24/23 A3006 RMK AO2 SLP173 T02390233 53000 TSNO
KHBG 160753Z AUTO 00000KT 10SM CLR 24/23 A3005 RMK AO2 SLP171 T02440233 TSNO

METAR Board
Radar Display
Forecast Discussion

FOR SITUATIONAL AWARENESS. NOT TO BE USED FOR FLIGHT PLANNING PURPOSES.